sensor_id;sensor_type;location;lat;lon;timestamp;P1;durP1;ratioP1;P2;durP2;ratioP2
26908;SDS011;14477;51.038;4.588;2023-03-14T00:01:51;1.80;;;0.60;;
26908;SDS011;14477;51.038;4.588;2023-03-14T00:04:17;0.98;;;0.50;;
26908;SDS011;14477;51.038;4.588;2023-03-14T00:06:43;3.73;;;0.70;;
26908;SDS011;14477;51.038;4.588;2023-03-14T00:09:08;1.85;;;0.63;;
26908;SDS011;14477;51.038;4.588;2023-03-14T00:11:34;3.10;;;0.60;;
26908;SDS011;14477;51.038;4.588;2023-03-14T00:14:00;3.53;;;0.57;;
26908;SDS011;14477;51.038;4.588;2023-03-14T00:16:26;3.03;;;0.80;;
26908;SDS011;14477;51.038;4.588;2023-03-14T00:18:51;1.17;;;0.70;;
26908;SDS011;14477;51.038;4.588;2023-03-14T00:21:18;3.13;;;0.60;;
26908;SDS011;14477;51.038;4.588;2023-03-14T00:23:44;1.60;;;0.60;;
26908;SDS011;14477;51.038;4.588;2023-03-14T00:26:11;3.58;;;0.73;;
26908;SDS011;14477;51.038;4.588;2023-03-14T00:28:40;2.83;;;1.00;;
26908;SDS011;14477;51.038;4.588;2023-03-14T00:31:10;2.72;;;0.70;;
26908;SDS011;14477;51.038;4.588;2023-03-14T00:33:38;2.55;;;0.80;;
26908;SDS011;14477;51.038;4.588;2023-03-14T00:36:04;3.93;;;0.87;;
26908;SDS011;14477;51.038;4.588;2023-03-14T00:38:34;6.03;;;0.95;;
26908;SDS011;14477;51.038;4.588;2023-03-14T00:41:03;2.50;;;0.75;;
26908;SDS011;14477;51.038;4.588;2023-03-14T00:43:32;3.40;;;0.70;;
26908;SDS011;14477;51.038;4.588;2023-03-14T00:45:58;2.22;;;0.70;;
26908;SDS011;14477;51.038;4.588;2023-03-14T00:48:24;3.07;;;0.80;;
26908;SDS011;14477;51.038;4.588;2023-03-14T00:50:50;3.38;;;0.90;;
26908;SDS011;14477;51.038;4.588;2023-03-14T00:53:16;2.97;;;0.90;;
26908;SDS011;14477;51.038;4.588;2023-03-14T00:55:42;3.17;;;1.00;;
26908;SDS011;14477;51.038;4.588;2023-03-14T00:58:09;3.45;;;0.70;;
26908;SDS011;14477;51.038;4.588;2023-03-14T01:00:36;4.22;;;0.90;;
26908;SDS011;14477;51.038;4.588;2023-03-14T01:03:02;4.27;;;0.80;;
26908;SDS011;14477;51.038;4.588;2023-03-14T01:05:28;2.22;;;0.80;;
26908;SDS011;14477;51.038;4.588;2023-03-14T01:07:53;2.80;;;0.80;;
26908;SDS011;14477;51.038;4.588;2023-03-14T01:10:19;6.53;;;1.27;;
26908;SDS011;14477;51.038;4.588;2023-03-14T01:12:45;3.15;;;1.10;;
26908;SDS011;14477;51.038;4.588;2023-03-14T01:15:10;4.90;;;0.70;;
26908;SDS011;14477;51.038;4.588;2023-03-14T01:17:36;4.93;;;1.00;;
26908;SDS011;14477;51.038;4.588;2023-03-14T01:20:06;4.65;;;0.85;;
26908;SDS011;14477;51.038;4.588;2023-03-14T01:22:36;3.47;;;0.90;;
26908;SDS011;14477;51.038;4.588;2023-03-14T01:25:06;2.95;;;0.80;;
26908;SDS011;14477;51.038;4.588;2023-03-14T01:27:33;4.20;;;0.90;;
26908;SDS011;14477;51.038;4.588;2023-03-14T01:29:59;4.20;;;1.00;;
26908;SDS011;14477;51.038;4.588;2023-03-14T01:32:25;3.58;;;0.90;;
26908;SDS011;14477;51.038;4.588;2023-03-14T01:34:50;3.63;;;0.90;;
26908;SDS011;14477;51.038;4.588;2023-03-14T01:37:17;3.03;;;0.68;;
26908;SDS011;14477;51.038;4.588;2023-03-14T01:39:42;3.83;;;1.00;;
26908;SDS011;14477;51.038;4.588;2023-03-14T01:42:08;4.72;;;0.77;;
26908;SDS011;14477;51.038;4.588;2023-03-14T01:44:47;3.95;;;1.00;;
26908;SDS011;14477;51.038;4.588;2023-03-14T01:47:20;3.10;;;0.90;;
26908;SDS011;14477;51.038;4.588;2023-03-14T01:49:51;2.85;;;0.73;;
26908;SDS011;14477;51.038;4.588;2023-03-14T01:52:32;2.92;;;0.70;;
26908;SDS011;14477;51.038;4.588;2023-03-14T01:55:05;4.18;;;0.80;;
26908;SDS011;14477;51.038;4.588;2023-03-14T02:00:23;3.07;;;0.83;;
26908;SDS011;14477;51.038;4.588;2023-03-14T02:02:49;3.80;;;0.90;;
26908;SDS011;14477;51.038;4.588;2023-03-14T02:05:19;3.97;;;1.10;;
26908;SDS011;14477;51.038;4.588;2023-03-14T02:07:54;5.93;;;1.42;;
26908;SDS011;14477;51.038;4.588;2023-03-14T02:10:22;4.00;;;0.90;;
26908;SDS011;14477;51.038;4.588;2023-03-14T02:12:54;4.97;;;0.90;;
26908;SDS011;14477;51.038;4.588;2023-03-14T02:15:22;3.75;;;0.90;;
26908;SDS011;14477;51.038;4.588;2023-03-14T02:17:48;4.65;;;1.00;;
26908;SDS011;14477;51.038;4.588;2023-03-14T02:20:19;2.40;;;0.68;;
26908;SDS011;14477;51.038;4.588;2023-03-14T02:22:57;3.17;;;0.95;;
26908;SDS011;14477;51.038;4.588;2023-03-14T02:28:10;3.25;;;0.90;;
26908;SDS011;14477;51.038;4.588;2023-03-14T02:30:36;3.33;;;0.80;;
26908;SDS011;14477;51.038;4.588;2023-03-14T02:33:06;2.47;;;0.60;;
26908;SDS011;14477;51.038;4.588;2023-03-14T02:40:35;2.80;;;0.80;;
26908;SDS011;14477;51.038;4.588;2023-03-14T02:43:01;1.53;;;0.60;;
26908;SDS011;14477;51.038;4.588;2023-03-14T02:48:24;2.88;;;0.60;;
26908;SDS011;14477;51.038;4.588;2023-03-14T02:50:53;4.87;;;0.50;;
26908;SDS011;14477;51.038;4.588;2023-03-14T02:53:31;2.13;;;0.60;;
26908;SDS011;14477;51.038;4.588;2023-03-14T02:56:01;0.73;;;0.50;;
26908;SDS011;14477;51.038;4.588;2023-03-14T02:58:27;1.65;;;0.50;;
26908;SDS011;14477;51.038;4.588;2023-03-14T03:00:54;2.38;;;0.68;;
26908;SDS011;14477;51.038;4.588;2023-03-14T03:03:20;2.33;;;0.50;;
26908;SDS011;14477;51.038;4.588;2023-03-14T03:05:53;1.17;;;0.50;;
26908;SDS011;14477;51.038;4.588;2023-03-14T03:08:20;0.88;;;0.50;;
26908;SDS011;14477;51.038;4.588;2023-03-14T03:10:49;1.23;;;0.45;;
26908;SDS011;14477;51.038;4.588;2023-03-14T03:13:15;1.05;;;0.40;;
26908;SDS011;14477;51.038;4.588;2023-03-14T03:15:41;0.90;;;0.50;;
26908;SDS011;14477;51.038;4.588;2023-03-14T03:18:07;1.48;;;0.50;;
26908;SDS011;14477;51.038;4.588;2023-03-14T03:20:33;1.70;;;0.50;;
26908;SDS011;14477;51.038;4.588;2023-03-14T03:22:59;0.83;;;0.50;;
26908;SDS011;14477;51.038;4.588;2023-03-14T03:25:25;1.55;;;0.60;;
26908;SDS011;14477;51.038;4.588;2023-03-14T03:27:51;1.02;;;0.50;;
26908;SDS011;14477;51.038;4.588;2023-03-14T03:30:17;1.48;;;0.70;;
26908;SDS011;14477;51.038;4.588;2023-03-14T03:32:43;1.23;;;0.67;;
26908;SDS011;14477;51.038;4.588;2023-03-14T03:35:09;1.20;;;0.63;;
26908;SDS011;14477;51.038;4.588;2023-03-14T03:37:35;1.23;;;0.57;;
26908;SDS011;14477;51.038;4.588;2023-03-14T03:40:01;0.80;;;0.50;;
26908;SDS011;14477;51.038;4.588;2023-03-14T03:42:31;1.15;;;0.63;;
26908;SDS011;14477;51.038;4.588;2023-03-14T03:44:57;1.63;;;0.70;;
26908;SDS011;14477;51.038;4.588;2023-03-14T03:47:24;2.42;;;0.70;;
26908;SDS011;14477;51.038;4.588;2023-03-14T03:49:49;2.10;;;0.50;;
26908;SDS011;14477;51.038;4.588;2023-03-14T03:52:15;1.70;;;0.60;;
26908;SDS011;14477;51.038;4.588;2023-03-14T03:54:41;1.75;;;0.60;;
26908;SDS011;14477;51.038;4.588;2023-03-14T03:57:06;1.50;;;0.60;;
26908;SDS011;14477;51.038;4.588;2023-03-14T03:59:32;1.93;;;0.63;;
26908;SDS011;14477;51.038;4.588;2023-03-14T04:01:58;2.27;;;0.60;;
26908;SDS011;14477;51.038;4.588;2023-03-14T04:04:23;2.80;;;0.80;;
26908;SDS011;14477;51.038;4.588;2023-03-14T04:06:49;1.90;;;0.60;;
26908;SDS011;14477;51.038;4.588;2023-03-14T04:09:14;2.25;;;0.70;;
26908;SDS011;14477;51.038;4.588;2023-03-14T04:11:40;3.53;;;0.93;;
26908;SDS011;14477;51.038;4.588;2023-03-14T04:14:06;2.05;;;0.90;;
26908;SDS011;14477;51.038;4.588;2023-03-14T04:16:32;2.97;;;0.98;;
26908;SDS011;14477;51.038;4.588;2023-03-14T04:18:58;2.20;;;0.93;;
26908;SDS011;14477;51.038;4.588;2023-03-14T04:21:25;2.10;;;1.00;;
26908;SDS011;14477;51.038;4.588;2023-03-14T04:23:51;5.15;;;1.40;;
26908;SDS011;14477;51.038;4.588;2023-03-14T04:26:17;3.03;;;1.20;;
26908;SDS011;14477;51.038;4.588;2023-03-14T04:28:43;4.07;;;1.25;;
26908;SDS011;14477;51.038;4.588;2023-03-14T04:31:09;2.40;;;1.13;;
26908;SDS011;14477;51.038;4.588;2023-03-14T04:33:37;3.60;;;1.40;;
26908;SDS011;14477;51.038;4.588;2023-03-14T04:36:03;3.27;;;1.30;;
26908;SDS011;14477;51.038;4.588;2023-03-14T04:38:30;3.80;;;1.23;;
26908;SDS011;14477;51.038;4.588;2023-03-14T04:40:56;3.65;;;1.52;;
26908;SDS011;14477;51.038;4.588;2023-03-14T04:43:21;4.28;;;2.22;;
26908;SDS011;14477;51.038;4.588;2023-03-14T04:45:47;4.30;;;1.70;;
26908;SDS011;14477;51.038;4.588;2023-03-14T04:48:13;4.10;;;1.52;;
26908;SDS011;14477;51.038;4.588;2023-03-14T04:50:39;3.13;;;1.30;;
26908;SDS011;14477;51.038;4.588;2023-03-14T04:53:05;3.35;;;1.40;;
26908;SDS011;14477;51.038;4.588;2023-03-14T04:55:31;3.67;;;1.40;;
26908;SDS011;14477;51.038;4.588;2023-03-14T04:57:57;3.10;;;1.30;;
26908;SDS011;14477;51.038;4.588;2023-03-14T05:00:24;3.80;;;1.25;;
26908;SDS011;14477;51.038;4.588;2023-03-14T05:02:50;3.72;;;1.40;;
26908;SDS011;14477;51.038;4.588;2023-03-14T05:05:15;3.55;;;1.25;;
26908;SDS011;14477;51.038;4.588;2023-03-14T05:07:41;3.50;;;1.00;;
26908;SDS011;14477;51.038;4.588;2023-03-14T05:10:07;2.95;;;1.30;;
26908;SDS011;14477;51.038;4.588;2023-03-14T05:12:34;2.05;;;1.02;;
26908;SDS011;14477;51.038;4.588;2023-03-14T05:15:01;2.70;;;1.07;;
26908;SDS011;14477;51.038;4.588;2023-03-14T05:17:26;2.88;;;1.10;;
26908;SDS011;14477;51.038;4.588;2023-03-14T05:19:52;1.80;;;1.13;;
26908;SDS011;14477;51.038;4.588;2023-03-14T05:22:18;2.92;;;1.20;;
26908;SDS011;14477;51.038;4.588;2023-03-14T05:24:43;2.70;;;1.10;;
26908;SDS011;14477;51.038;4.588;2023-03-14T05:27:09;2.15;;;1.00;;
26908;SDS011;14477;51.038;4.588;2023-03-14T05:29:34;3.73;;;1.57;;
26908;SDS011;14477;51.038;4.588;2023-03-14T05:32:00;1.90;;;1.20;;
26908;SDS011;14477;51.038;4.588;2023-03-14T05:34:26;2.40;;;1.00;;
26908;SDS011;14477;51.038;4.588;2023-03-14T05:36:51;1.50;;;0.98;;
26908;SDS011;14477;51.038;4.588;2023-03-14T05:39:17;1.60;;;1.03;;
26908;SDS011;14477;51.038;4.588;2023-03-14T05:41:43;2.60;;;1.10;;
26908;SDS011;14477;51.038;4.588;2023-03-14T05:44:08;2.15;;;1.00;;
26908;SDS011;14477;51.038;4.588;2023-03-14T05:46:34;3.60;;;1.20;;
26908;SDS011;14477;51.038;4.588;2023-03-14T05:49:00;2.58;;;1.30;;
26908;SDS011;14477;51.038;4.588;2023-03-14T05:51:25;2.53;;;1.23;;
26908;SDS011;14477;51.038;4.588;2023-03-14T05:53:51;1.40;;;0.90;;
26908;SDS011;14477;51.038;4.588;2023-03-14T05:56:17;1.50;;;0.97;;
26908;SDS011;14477;51.038;4.588;2023-03-14T05:58:42;1.17;;;0.88;;
26908;SDS011;14477;51.038;4.588;2023-03-14T06:01:08;2.73;;;1.27;;
26908;SDS011;14477;51.038;4.588;2023-03-14T06:03:34;1.95;;;1.13;;
26908;SDS011;14477;51.038;4.588;2023-03-14T06:06:00;2.60;;;1.10;;
26908;SDS011;14477;51.038;4.588;2023-03-14T06:08:25;2.30;;;1.13;;
26908;SDS011;14477;51.038;4.588;2023-03-14T06:10:52;2.88;;;1.30;;
26908;SDS011;14477;51.038;4.588;2023-03-14T06:13:18;1.90;;;1.00;;
26908;SDS011;14477;51.038;4.588;2023-03-14T06:15:44;2.33;;;1.10;;
26908;SDS011;14477;51.038;4.588;2023-03-14T06:18:10;1.58;;;1.13;;
26908;SDS011;14477;51.038;4.588;2023-03-14T06:20:37;1.58;;;0.98;;
26908;SDS011;14477;51.038;4.588;2023-03-14T06:23:04;2.40;;;1.33;;
26908;SDS011;14477;51.038;4.588;2023-03-14T06:25:30;2.45;;;1.00;;
26908;SDS011;14477;51.038;4.588;2023-03-14T06:27:56;2.42;;;1.13;;
26908;SDS011;14477;51.038;4.588;2023-03-14T06:30:22;1.70;;;0.93;;
26908;SDS011;14477;51.038;4.588;2023-03-14T06:32:48;1.98;;;1.13;;
26908;SDS011;14477;51.038;4.588;2023-03-14T06:35:13;1.80;;;1.10;;
26908;SDS011;14477;51.038;4.588;2023-03-14T06:37:39;2.17;;;1.10;;
26908;SDS011;14477;51.038;4.588;2023-03-14T06:40:05;1.27;;;0.90;;
26908;SDS011;14477;51.038;4.588;2023-03-14T06:42:32;2.60;;;1.20;;
26908;SDS011;14477;51.038;4.588;2023-03-14T06:44:58;1.50;;;1.00;;
26908;SDS011;14477;51.038;4.588;2023-03-14T06:47:23;2.33;;;1.00;;
26908;SDS011;14477;51.038;4.588;2023-03-14T06:49:49;1.88;;;1.10;;
26908;SDS011;14477;51.038;4.588;2023-03-14T06:52:15;1.93;;;1.00;;
26908;SDS011;14477;51.038;4.588;2023-03-14T06:54:41;2.17;;;1.17;;
26908;SDS011;14477;51.038;4.588;2023-03-14T06:57:06;1.93;;;1.00;;
26908;SDS011;14477;51.038;4.588;2023-03-14T06:59:32;0.70;;;0.70;;
26908;SDS011;14477;51.038;4.588;2023-03-14T07:01:58;1.40;;;0.80;;
26908;SDS011;14477;51.038;4.588;2023-03-14T07:04:24;0.60;;;0.60;;
26908;SDS011;14477;51.038;4.588;2023-03-14T07:06:49;1.38;;;0.60;;
26908;SDS011;14477;51.038;4.588;2023-03-14T07:09:15;0.80;;;0.80;;
26908;SDS011;14477;51.038;4.588;2023-03-14T07:11:42;0.70;;;0.70;;
26908;SDS011;14477;51.038;4.588;2023-03-14T07:14:08;1.35;;;0.80;;
26908;SDS011;14477;51.038;4.588;2023-03-14T07:16:34;0.73;;;0.70;;
26908;SDS011;14477;51.038;4.588;2023-03-14T07:19:00;1.02;;;0.70;;
26908;SDS011;14477;51.038;4.588;2023-03-14T07:21:26;1.20;;;0.57;;
26908;SDS011;14477;51.038;4.588;2023-03-14T07:23:54;0.50;;;0.50;;
26908;SDS011;14477;51.038;4.588;2023-03-14T07:26:19;1.50;;;0.40;;
26908;SDS011;14477;51.038;4.588;2023-03-14T07:28:45;1.13;;;0.52;;
26908;SDS011;14477;51.038;4.588;2023-03-14T07:31:11;1.67;;;0.50;;
26908;SDS011;14477;51.038;4.588;2023-03-14T07:33:37;0.93;;;0.40;;
26908;SDS011;14477;51.038;4.588;2023-03-14T07:36:03;1.93;;;0.47;;
26908;SDS011;14477;51.038;4.588;2023-03-14T07:38:29;0.30;;;0.30;;
26908;SDS011;14477;51.038;4.588;2023-03-14T07:41:01;0.50;;;0.50;;
26908;SDS011;14477;51.038;4.588;2023-03-14T07:43:28;1.23;;;0.33;;
26908;SDS011;14477;51.038;4.588;2023-03-14T07:45:54;1.13;;;0.40;;
26908;SDS011;14477;51.038;4.588;2023-03-14T07:48:19;1.37;;;0.60;;
26908;SDS011;14477;51.038;4.588;2023-03-14T07:50:50;0.60;;;0.50;;
26908;SDS011;14477;51.038;4.588;2023-03-14T07:53:17;1.95;;;0.70;;
26908;SDS011;14477;51.038;4.588;2023-03-14T07:55:43;1.13;;;0.60;;
26908;SDS011;14477;51.038;4.588;2023-03-14T07:58:09;1.55;;;0.60;;
26908;SDS011;14477;51.038;4.588;2023-03-14T08:00:36;1.50;;;0.70;;
26908;SDS011;14477;51.038;4.588;2023-03-14T08:03:02;0.93;;;0.68;;
26908;SDS011;14477;51.038;4.588;2023-03-14T08:05:27;2.00;;;0.77;;
26908;SDS011;14477;51.038;4.588;2023-03-14T08:07:53;2.00;;;0.60;;
26908;SDS011;14477;51.038;4.588;2023-03-14T08:10:19;2.07;;;0.60;;
26908;SDS011;14477;51.038;4.588;2023-03-14T08:12:51;1.55;;;0.73;;
26908;SDS011;14477;51.038;4.588;2023-03-14T08:15:20;0.90;;;0.50;;
26908;SDS011;14477;51.038;4.588;2023-03-14T08:17:46;1.08;;;0.50;;
26908;SDS011;14477;51.038;4.588;2023-03-14T08:20:19;1.15;;;0.55;;
26908;SDS011;14477;51.038;4.588;2023-03-14T08:22:47;1.23;;;0.67;;
26908;SDS011;14477;51.038;4.588;2023-03-14T08:25:13;1.60;;;0.63;;
26908;SDS011;14477;51.038;4.588;2023-03-14T08:27:39;1.13;;;0.47;;
26908;SDS011;14477;51.038;4.588;2023-03-14T08:30:07;0.73;;;0.60;;
26908;SDS011;14477;51.038;4.588;2023-03-14T08:32:34;1.05;;;0.63;;
26908;SDS011;14477;51.038;4.588;2023-03-14T08:35:00;1.73;;;0.60;;
26908;SDS011;14477;51.038;4.588;2023-03-14T08:37:27;0.90;;;0.60;;
26908;SDS011;14477;51.038;4.588;2023-03-14T08:39:53;0.82;;;0.60;;
26908;SDS011;14477;51.038;4.588;2023-03-14T08:42:19;2.00;;;0.70;;
26908;SDS011;14477;51.038;4.588;2023-03-14T08:44:45;1.58;;;0.50;;
26908;SDS011;14477;51.038;4.588;2023-03-14T08:47:10;1.20;;;0.50;;
26908;SDS011;14477;51.038;4.588;2023-03-14T08:49:36;0.57;;;0.57;;
26908;SDS011;14477;51.038;4.588;2023-03-14T08:52:05;1.07;;;0.70;;
26908;SDS011;14477;51.038;4.588;2023-03-14T08:54:31;0.70;;;0.60;;
26908;SDS011;14477;51.038;4.588;2023-03-14T08:56:57;1.83;;;0.60;;
26908;SDS011;14477;51.038;4.588;2023-03-14T08:59:23;1.83;;;0.70;;
26908;SDS011;14477;51.038;4.588;2023-03-14T09:01:48;1.73;;;0.60;;
26908;SDS011;14477;51.038;4.588;2023-03-14T09:04:14;0.75;;;0.60;;
26908;SDS011;14477;51.038;4.588;2023-03-14T09:06:40;1.27;;;0.60;;
26908;SDS011;14477;51.038;4.588;2023-03-14T09:09:06;1.20;;;0.63;;
26908;SDS011;14477;51.038;4.588;2023-03-14T09:11:32;1.73;;;0.60;;
26908;SDS011;14477;51.038;4.588;2023-03-14T09:13:58;1.48;;;0.80;;
26908;SDS011;14477;51.038;4.588;2023-03-14T09:16:24;0.97;;;0.60;;
26908;SDS011;14477;51.038;4.588;2023-03-14T09:18:49;1.17;;;0.70;;
26908;SDS011;14477;51.038;4.588;2023-03-14T09:21:18;1.53;;;0.53;;
26908;SDS011;14477;51.038;4.588;2023-03-14T09:23:43;0.95;;;0.70;;
26908;SDS011;14477;51.038;4.588;2023-03-14T09:26:10;0.95;;;0.70;;
26908;SDS011;14477;51.038;4.588;2023-03-14T09:28:36;1.60;;;0.90;;
26908;SDS011;14477;51.038;4.588;2023-03-14T09:31:08;0.75;;;0.75;;
26908;SDS011;14477;51.038;4.588;2023-03-14T09:33:35;1.05;;;0.70;;
26908;SDS011;14477;51.038;4.588;2023-03-14T09:36:01;2.73;;;1.20;;
26908;SDS011;14477;51.038;4.588;2023-03-14T09:38:27;2.35;;;1.20;;
26908;SDS011;14477;51.038;4.588;2023-03-14T09:40:53;2.83;;;1.45;;
26908;SDS011;14477;51.038;4.588;2023-03-14T09:43:20;2.17;;;1.47;;
26908;SDS011;14477;51.038;4.588;2023-03-14T09:45:48;2.88;;;1.60;;
26908;SDS011;14477;51.038;4.588;2023-03-14T09:48:16;3.80;;;1.60;;
26908;SDS011;14477;51.038;4.588;2023-03-14T09:50:51;2.60;;;1.50;;
26908;SDS011;14477;51.038;4.588;2023-03-14T09:53:20;1.42;;;0.93;;
26908;SDS011;14477;51.038;4.588;2023-03-14T09:55:50;0.87;;;0.70;;
26908;SDS011;14477;51.038;4.588;2023-03-14T09:58:22;0.60;;;0.60;;
26908;SDS011;14477;51.038;4.588;2023-03-14T10:00:49;0.47;;;0.40;;
26908;SDS011;14477;51.038;4.588;2023-03-14T10:05:48;0.80;;;0.60;;
26908;SDS011;14477;51.038;4.588;2023-03-14T10:08:14;1.50;;;0.70;;
26908;SDS011;14477;51.038;4.588;2023-03-14T10:10:40;0.70;;;0.50;;
26908;SDS011;14477;51.038;4.588;2023-03-14T10:15:42;2.08;;;0.80;;
26908;SDS011;14477;51.038;4.588;2023-03-14T10:18:19;1.52;;;0.73;;
26908;SDS011;14477;51.038;4.588;2023-03-14T10:20:47;1.45;;;1.00;;
26908;SDS011;14477;51.038;4.588;2023-03-14T10:25:43;1.33;;;0.53;;
26908;SDS011;14477;51.038;4.588;2023-03-14T10:28:27;1.20;;;0.60;;
26908;SDS011;14477;51.038;4.588;2023-03-14T10:31:14;1.05;;;0.50;;
26908;SDS011;14477;51.038;4.588;2023-03-14T10:33:40;0.88;;;0.50;;
26908;SDS011;14477;51.038;4.588;2023-03-14T10:36:21;0.63;;;0.52;;
26908;SDS011;14477;51.038;4.588;2023-03-14T10:38:51;0.60;;;0.50;;
26908;SDS011;14477;51.038;4.588;2023-03-14T10:41:43;0.73;;;0.40;;
26908;SDS011;14477;51.038;4.588;2023-03-14T10:44:18;0.93;;;0.60;;
26908;SDS011;14477;51.038;4.588;2023-03-14T10:46:54;1.50;;;0.55;;
26908;SDS011;14477;51.038;4.588;2023-03-14T10:49:33;0.55;;;0.55;;
26908;SDS011;14477;51.038;4.588;2023-03-14T10:52:01;0.90;;;0.70;;
26908;SDS011;14477;51.038;4.588;2023-03-14T10:54:40;1.02;;;0.60;;
26908;SDS011;14477;51.038;4.588;2023-03-14T10:57:11;1.92;;;0.70;;
26908;SDS011;14477;51.038;4.588;2023-03-14T10:59:37;1.63;;;0.90;;
26908;SDS011;14477;51.038;4.588;2023-03-14T11:05:24;0.90;;;0.80;;
26908;SDS011;14477;51.038;4.588;2023-03-14T11:08:11;1.27;;;0.80;;
26908;SDS011;14477;51.038;4.588;2023-03-14T11:10:49;2.80;;;1.00;;
26908;SDS011;14477;51.038;4.588;2023-03-14T11:16:22;1.42;;;0.80;;
26908;SDS011;14477;51.038;4.588;2023-03-14T11:19:37;0.88;;;0.65;;
26908;SDS011;14477;51.038;4.588;2023-03-14T11:22:29;1.08;;;0.75;;
26908;SDS011;14477;51.038;4.588;2023-03-14T11:25:18;1.45;;;1.00;;
26908;SDS011;14477;51.038;4.588;2023-03-14T11:30:55;1.00;;;0.85;;
26908;SDS011;14477;51.038;4.588;2023-03-14T11:33:31;1.15;;;0.82;;
26908;SDS011;14477;51.038;4.588;2023-03-14T11:36:06;1.65;;;0.77;;
26908;SDS011;14477;51.038;4.588;2023-03-14T11:38:47;1.23;;;0.80;;
26908;SDS011;14477;51.038;4.588;2023-03-14T11:41:35;3.77;;;0.70;;
26908;SDS011;14477;51.038;4.588;2023-03-14T11:44:10;1.00;;;0.70;;
26908;SDS011;14477;51.038;4.588;2023-03-14T11:49:36;1.02;;;0.60;;
26908;SDS011;14477;51.038;4.588;2023-03-14T11:52:30;1.25;;;0.63;;
26908;SDS011;14477;51.038;4.588;2023-03-14T11:57:30;1.00;;;0.50;;
26908;SDS011;14477;51.038;4.588;2023-03-14T12:10:42;1.80;;;0.73;;
26908;SDS011;14477;51.038;4.588;2023-03-14T12:13:28;1.42;;;0.60;;
26908;SDS011;14477;51.038;4.588;2023-03-14T12:15:58;3.27;;;0.63;;
26908;SDS011;14477;51.038;4.588;2023-03-14T12:20:57;1.77;;;0.65;;
26908;SDS011;14477;51.038;4.588;2023-03-14T12:23:25;2.20;;;0.60;;
26908;SDS011;14477;51.038;4.588;2023-03-14T12:26:13;1.20;;;0.50;;
26908;SDS011;14477;51.038;4.588;2023-03-14T12:28:43;2.53;;;0.73;;
26908;SDS011;14477;51.038;4.588;2023-03-14T12:34:03;3.35;;;0.63;;
26908;SDS011;14477;51.038;4.588;2023-03-14T12:42:44;1.92;;;0.80;;
26908;SDS011;14477;51.038;4.588;2023-03-14T12:45:14;2.67;;;1.00;;
26908;SDS011;14477;51.038;4.588;2023-03-14T12:47:46;2.63;;;0.80;;
26908;SDS011;14477;51.038;4.588;2023-03-14T12:50:21;4.03;;;0.73;;
26908;SDS011;14477;51.038;4.588;2023-03-14T12:52:54;4.20;;;0.77;;
26908;SDS011;14477;51.038;4.588;2023-03-14T12:55:31;1.90;;;0.60;;
26908;SDS011;14477;51.038;4.588;2023-03-14T13:00:31;2.53;;;0.70;;
26908;SDS011;14477;51.038;4.588;2023-03-14T13:03:13;2.07;;;0.60;;
26908;SDS011;14477;51.038;4.588;2023-03-14T13:06:05;1.95;;;0.80;;
26908;SDS011;14477;51.038;4.588;2023-03-14T13:08:44;2.30;;;0.60;;
26908;SDS011;14477;51.038;4.588;2023-03-14T13:11:14;2.80;;;0.90;;
26908;SDS011;14477;51.038;4.588;2023-03-14T13:13:50;1.67;;;0.80;;
26908;SDS011;14477;51.038;4.588;2023-03-14T13:16:21;2.73;;;1.00;;
26908;SDS011;14477;51.038;4.588;2023-03-14T13:18:48;3.22;;;0.98;;
26908;SDS011;14477;51.038;4.588;2023-03-14T13:21:44;2.10;;;0.88;;
26908;SDS011;14477;51.038;4.588;2023-03-14T13:24:23;3.08;;;0.77;;
26908;SDS011;14477;51.038;4.588;2023-03-14T13:26:51;3.30;;;1.10;;
26908;SDS011;14477;51.038;4.588;2023-03-14T13:29:20;4.40;;;1.13;;
26908;SDS011;14477;51.038;4.588;2023-03-14T13:31:48;3.40;;;0.80;;
26908;SDS011;14477;51.038;4.588;2023-03-14T13:34:16;4.55;;;0.93;;
26908;SDS011;14477;51.038;4.588;2023-03-14T13:36:42;5.55;;;1.50;;
26908;SDS011;14477;51.038;4.588;2023-03-14T13:39:18;6.93;;;1.97;;
26908;SDS011;14477;51.038;4.588;2023-03-14T13:41:47;3.55;;;1.25;;
26908;SDS011;14477;51.038;4.588;2023-03-14T13:44:15;4.38;;;1.20;;
26908;SDS011;14477;51.038;4.588;2023-03-14T13:46:44;4.95;;;1.33;;
26908;SDS011;14477;51.038;4.588;2023-03-14T13:49:11;4.13;;;1.20;;
26908;SDS011;14477;51.038;4.588;2023-03-14T13:51:42;7.10;;;1.87;;
26908;SDS011;14477;51.038;4.588;2023-03-14T13:54:15;4.85;;;1.48;;
26908;SDS011;14477;51.038;4.588;2023-03-14T13:56:42;4.07;;;1.20;;
26908;SDS011;14477;51.038;4.588;2023-03-14T13:59:27;4.50;;;1.38;;
26908;SDS011;14477;51.038;4.588;2023-03-14T14:01:55;4.43;;;1.13;;
26908;SDS011;14477;51.038;4.588;2023-03-14T14:04:23;4.10;;;1.27;;
26908;SDS011;14477;51.038;4.588;2023-03-14T14:06:55;4.60;;;1.08;;
26908;SDS011;14477;51.038;4.588;2023-03-14T14:09:46;4.00;;;1.00;;
26908;SDS011;14477;51.038;4.588;2023-03-14T14:14:50;3.03;;;0.90;;
26908;SDS011;14477;51.038;4.588;2023-03-14T14:17:20;4.17;;;0.80;;
26908;SDS011;14477;51.038;4.588;2023-03-14T14:19:57;2.05;;;0.90;;
26908;SDS011;14477;51.038;4.588;2023-03-14T14:22:24;2.75;;;0.75;;
26908;SDS011;14477;51.038;4.588;2023-03-14T14:24:51;3.60;;;0.93;;
26908;SDS011;14477;51.038;4.588;2023-03-14T14:27:39;4.72;;;1.15;;
26908;SDS011;14477;51.038;4.588;2023-03-14T14:32:43;3.08;;;0.93;;
26908;SDS011;14477;51.038;4.588;2023-03-14T14:38:16;2.47;;;0.68;;
26908;SDS011;14477;51.038;4.588;2023-03-14T14:40:43;1.50;;;0.68;;
26908;SDS011;14477;51.038;4.588;2023-03-14T14:43:11;1.63;;;0.50;;
26908;SDS011;14477;51.038;4.588;2023-03-14T14:45:42;1.83;;;0.70;;
26908;SDS011;14477;51.038;4.588;2023-03-14T14:48:09;2.13;;;0.75;;
26908;SDS011;14477;51.038;4.588;2023-03-14T14:50:37;2.72;;;0.98;;
26908;SDS011;14477;51.038;4.588;2023-03-14T14:55:53;2.78;;;0.95;;
26908;SDS011;14477;51.038;4.588;2023-03-14T14:58:25;5.72;;;2.00;;
26908;SDS011;14477;51.038;4.588;2023-03-14T15:00:54;5.20;;;1.50;;
26908;SDS011;14477;51.038;4.588;2023-03-14T15:03:21;3.08;;;1.13;;
26908;SDS011;14477;51.038;4.588;2023-03-14T15:05:47;2.67;;;1.30;;
26908;SDS011;14477;51.038;4.588;2023-03-14T15:08:14;3.40;;;1.13;;
26908;SDS011;14477;51.038;4.588;2023-03-14T15:10:40;2.50;;;0.83;;
26908;SDS011;14477;51.038;4.588;2023-03-14T15:13:05;1.25;;;0.90;;
26908;SDS011;14477;51.038;4.588;2023-03-14T15:15:31;2.77;;;0.80;;
26908;SDS011;14477;51.038;4.588;2023-03-14T15:17:57;0.90;;;0.60;;
26908;SDS011;14477;51.038;4.588;2023-03-14T15:20:22;1.80;;;0.63;;
26908;SDS011;14477;51.038;4.588;2023-03-14T15:22:49;1.80;;;0.40;;
26908;SDS011;14477;51.038;4.588;2023-03-14T15:25:14;1.15;;;0.60;;
26908;SDS011;14477;51.038;4.588;2023-03-14T15:27:41;2.40;;;0.80;;
26908;SDS011;14477;51.038;4.588;2023-03-14T15:30:17;2.05;;;0.75;;
26908;SDS011;14477;51.038;4.588;2023-03-14T15:32:43;1.83;;;0.50;;
26908;SDS011;14477;51.038;4.588;2023-03-14T15:35:09;1.25;;;0.50;;
26908;SDS011;14477;51.038;4.588;2023-03-14T15:37:35;1.58;;;0.63;;
26908;SDS011;14477;51.038;4.588;2023-03-14T15:40:01;2.53;;;0.80;;
26908;SDS011;14477;51.038;4.588;2023-03-14T15:42:35;1.63;;;0.60;;
26908;SDS011;14477;51.038;4.588;2023-03-14T15:45:00;1.40;;;0.70;;
26908;SDS011;14477;51.038;4.588;2023-03-14T15:47:26;1.30;;;0.90;;
26908;SDS011;14477;51.038;4.588;2023-03-14T15:49:52;4.10;;;0.90;;
26908;SDS011;14477;51.038;4.588;2023-03-14T15:52:18;2.53;;;0.70;;
26908;SDS011;14477;51.038;4.588;2023-03-14T15:54:44;1.40;;;0.63;;
26908;SDS011;14477;51.038;4.588;2023-03-14T15:57:10;1.80;;;0.52;;
26908;SDS011;14477;51.038;4.588;2023-03-14T15:59:38;2.80;;;0.80;;
26908;SDS011;14477;51.038;4.588;2023-03-14T16:02:03;1.43;;;0.60;;
26908;SDS011;14477;51.038;4.588;2023-03-14T16:04:29;4.27;;;0.67;;
26908;SDS011;14477;51.038;4.588;2023-03-14T16:06:55;2.00;;;0.70;;
26908;SDS011;14477;51.038;4.588;2023-03-14T16:09:20;2.33;;;0.80;;